createdAt,value
2022-09-18T00:01:31.749Z,11.00
2022-09-18T00:04:02.293Z,11.10
2022-09-18T00:06:31.981Z,11.10
2022-09-18T00:09:00.216Z,11.10
2022-09-18T00:11:30.474Z,11.10
2022-09-18T00:13:57.502Z,11.10
2022-09-18T00:16:25.988Z,11.10
2022-09-18T00:18:54.779Z,11.10
2022-09-18T00:21:24.773Z,11.10
2022-09-18T00:23:54.695Z,11.10
2022-09-18T00:26:22.003Z,11.10
2022-09-18T00:28:50.113Z,11.10
2022-09-18T00:31:18.238Z,11.10
2022-09-18T00:33:45.424Z,11.00
2022-09-18T00:36:16.675Z,11.00
2022-09-18T00:38:45.714Z,11.00
2022-09-18T00:41:25.506Z,11.00
2022-09-18T00:44:16.431Z,10.90
2022-09-18T00:46:46.124Z,10.90
2022-09-18T00:49:22.516Z,10.90
2022-09-18T00:51:53.799Z,10.90
2022-09-18T00:54:27.886Z,10.90
2022-09-18T00:57:00.558Z,10.90
2022-09-18T00:59:31.243Z,10.80
2022-09-18T01:01:59.293Z,10.80
2022-09-18T01:04:27.928Z,10.80
2022-09-18T01:07:30.216Z,10.80
2022-09-18T01:10:24.315Z,10.70
2022-09-18T01:12:56.407Z,10.70
2022-09-18T01:15:29.022Z,10.70
2022-09-18T01:18:01.752Z,10.60
2022-09-18T01:21:07.314Z,10.60
2022-09-18T01:23:49.509Z,10.60
2022-09-18T01:26:19.455Z,10.50
2022-09-18T01:28:54.778Z,10.50
2022-09-18T01:31:42.530Z,10.50
2022-09-18T01:34:36.912Z,10.50
2022-09-18T01:37:17.674Z,10.40
2022-09-18T01:39:58.736Z,10.50
2022-09-18T01:42:28.661Z,10.40
2022-09-18T01:45:02.368Z,10.40
2022-09-18T01:47:36.261Z,10.30
2022-09-18T01:50:04.512Z,10.30
2022-09-18T01:52:40.143Z,10.30
2022-09-18T01:55:15.676Z,10.20
2022-09-18T01:58:15.590Z,10.20
2022-09-18T02:00:46.063Z,10.20
2022-09-18T02:03:36.148Z,10.20
2022-09-18T02:06:10.533Z,10.20
2022-09-18T02:08:54.438Z,10.10
2022-09-18T02:11:23.900Z,10.00
2022-09-18T02:13:57.827Z,10.00
2022-09-18T02:16:45.437Z,10.00
2022-09-18T02:19:43.817Z,10.00
2022-09-18T02:22:15.464Z,10.00
2022-09-18T02:24:48.555Z,9.90
2022-09-18T02:27:16.163Z,9.90
2022-09-18T02:29:46.110Z,9.90
2022-09-18T02:32:14.937Z,9.80
2022-09-18T02:34:42.137Z,9.80
2022-09-18T02:37:36.997Z,9.80
2022-09-18T02:40:16.700Z,9.80
2022-09-18T02:42:53.530Z,9.70
2022-09-18T02:45:45.941Z,9.80
2022-09-18T02:48:49.723Z,9.70
2022-09-18T02:51:53.277Z,9.70
2022-09-18T02:54:23.007Z,9.70
2022-09-18T02:57:10.763Z,9.70
2022-09-18T02:59:49.244Z,9.70
2022-09-18T03:02:20.665Z,9.60
2022-09-18T03:04:47.965Z,9.60
2022-09-18T03:07:25.659Z,9.50
2022-09-18T03:09:53.400Z,9.50
2022-09-18T03:12:20.298Z,9.50
2022-09-18T03:14:48.733Z,9.50
2022-09-18T03:17:16.998Z,9.50
2022-09-18T03:19:45.845Z,9.40
2022-09-18T03:22:13.840Z,9.40
2022-09-18T03:24:42.089Z,9.40
2022-09-18T03:27:10.534Z,9.40
2022-09-18T03:29:37.526Z,9.30
2022-09-18T03:32:04.657Z,9.30
2022-09-18T03:34:39.929Z,9.40
2022-09-18T03:37:06.870Z,9.40
2022-09-18T03:39:33.989Z,9.40
2022-09-18T03:42:01.898Z,9.40
2022-09-18T03:44:31.664Z,9.40
2022-09-18T03:47:00.635Z,9.40
2022-09-18T03:49:27.466Z,9.40
2022-09-18T03:51:54.928Z,9.40
2022-09-18T03:54:22.101Z,9.40
2022-09-18T03:56:57.996Z,9.30
2022-09-18T03:59:30.622Z,9.40
2022-09-18T04:02:16.252Z,9.40
2022-09-18T04:04:49.464Z,9.30
2022-09-18T04:07:16.752Z,9.30
2022-09-18T04:10:22.746Z,9.30
2022-09-18T04:12:49.616Z,9.40
2022-09-18T04:15:25.018Z,9.40
2022-09-18T04:17:52.032Z,9.30
2022-09-18T04:20:19.858Z,9.40
2022-09-18T04:22:46.934Z,9.40
2022-09-18T04:25:14.532Z,9.40
2022-09-18T04:27:41.418Z,9.30
2022-09-18T04:30:09.321Z,9.30
2022-09-18T04:32:38.746Z,9.30
2022-09-18T04:35:06.223Z,9.30
2022-09-18T04:37:33.212Z,9.30
2022-09-18T04:40:02.112Z,9.20
2022-09-18T04:42:30.212Z,9.20
2022-09-18T04:44:58.270Z,9.20
2022-09-18T04:47:25.403Z,9.10
2022-09-18T04:49:53.887Z,9.10
2022-09-18T04:52:20.903Z,9.10
2022-09-18T04:54:47.865Z,9.10
2022-09-18T04:57:14.800Z,9.10
2022-09-18T04:59:46.117Z,9.10
2022-09-18T05:02:13.079Z,9.10
2022-09-18T05:04:39.980Z,9.10
2022-09-18T05:07:15.818Z,9.00
2022-09-18T05:09:42.942Z,9.00
2022-09-18T05:12:10.016Z,9.00
2022-09-18T05:14:39.314Z,9.00
2022-09-18T05:17:08.323Z,9.00
2022-09-18T05:19:38.024Z,9.10
2022-09-18T05:22:11.629Z,9.00
2022-09-18T05:24:42.963Z,9.00
2022-09-18T05:27:13.778Z,9.00
2022-09-18T05:29:40.998Z,9.00
2022-09-18T05:32:18.269Z,9.00
2022-09-18T05:34:45.311Z,9.00
2022-09-18T05:37:13.454Z,8.90
2022-09-18T05:39:42.730Z,8.90
2022-09-18T05:42:12.965Z,8.90
2022-09-18T05:44:39.807Z,8.90
2022-09-18T05:47:14.387Z,8.80
2022-09-18T05:49:41.557Z,8.80
2022-09-18T05:52:09.362Z,8.80
2022-09-18T05:54:37.568Z,8.90
2022-09-18T05:57:04.486Z,8.80
2022-09-18T05:59:32.411Z,8.80
2022-09-18T06:02:01.298Z,8.90
2022-09-18T06:04:54.403Z,8.90
2022-09-18T06:07:21.431Z,8.90
2022-09-18T06:09:48.447Z,9.00
2022-09-18T06:12:15.335Z,9.00
2022-09-18T06:14:42.417Z,9.10
2022-09-18T06:17:09.810Z,9.10
2022-09-18T06:19:36.922Z,9.10
2022-09-18T06:22:03.911Z,9.10
2022-09-18T06:24:32.349Z,9.20
2022-09-18T06:27:08.657Z,9.20
2022-09-18T06:29:37.056Z,9.30
2022-09-18T06:32:24.022Z,9.40
2022-09-18T06:34:51.019Z,9.40
2022-09-18T06:37:18.052Z,9.40
2022-09-18T06:39:45.947Z,9.50
2022-09-18T06:42:22.254Z,9.50
2022-09-18T06:45:11.116Z,9.60
2022-09-18T06:47:39.605Z,9.60
2022-09-18T06:50:09.189Z,9.60
2022-09-18T06:52:36.899Z,9.60
2022-09-18T06:55:06.253Z,9.60
2022-09-18T06:57:34.400Z,9.60
2022-09-18T07:00:01.571Z,9.50
2022-09-18T07:02:37.142Z,9.50
2022-09-18T07:05:25.652Z,9.50
2022-09-18T07:07:52.776Z,9.50
2022-09-18T07:10:22.520Z,9.50
2022-09-18T07:12:49.971Z,9.60
2022-09-18T07:15:20.299Z,9.70
2022-09-18T07:17:48.235Z,9.80
2022-09-18T07:20:19.921Z,9.90
2022-09-18T07:22:58.595Z,10.00
2022-09-18T07:25:38.407Z,10.10
2022-09-18T07:28:10.527Z,10.20
2022-09-18T07:30:47.156Z,10.20
2022-09-18T07:33:15.136Z,10.40
2022-09-18T07:35:46.728Z,10.50
2022-09-18T07:38:15.118Z,10.60
2022-09-18T07:40:52.744Z,10.70
2022-09-18T07:43:31.065Z,10.70
2022-09-18T07:45:59.465Z,10.70
2022-09-18T07:48:29.337Z,10.70
2022-09-18T07:51:04.868Z,10.70
2022-09-18T07:53:33.819Z,10.70
2022-09-18T07:56:02.032Z,10.80
2022-09-18T07:58:29.202Z,10.80
2022-09-18T08:01:03.601Z,10.80
2022-09-18T08:03:32.660Z,10.90
2022-09-18T08:06:20.399Z,11.00
2022-09-18T08:09:09.090Z,11.10
2022-09-18T08:11:56.333Z,11.20
2022-09-18T08:14:46.368Z,11.40
2022-09-18T08:17:26.493Z,11.40
2022-09-18T08:20:14.343Z,11.50
2022-09-18T08:22:51.098Z,11.50
2022-09-18T08:25:21.419Z,11.50
2022-09-18T08:27:49.335Z,11.50
2022-09-18T08:30:24.891Z,11.70
2022-09-18T08:32:59.927Z,11.90
2022-09-18T08:35:28.510Z,12.00
2022-09-18T08:38:00.844Z,12.10
2022-09-18T08:40:42.653Z,12.10
2022-09-18T08:43:20.447Z,12.10
2022-09-18T08:46:08.770Z,12.10
2022-09-18T08:48:58.960Z,12.20
2022-09-18T08:51:37.591Z,12.30
2022-09-18T08:54:43.717Z,12.40
2022-09-18T08:57:17.774Z,12.60
2022-09-18T09:00:14.248Z,12.70
2022-09-18T09:02:49.749Z,12.90
2022-09-18T09:05:21.657Z,13.10
2022-09-18T09:07:57.963Z,13.20
2022-09-18T09:10:42.451Z,13.30
2022-09-18T09:13:31.721Z,13.40
2022-09-18T09:16:24.290Z,13.30
2022-09-18T09:19:05.774Z,13.30
2022-09-18T09:21:57.781Z,13.40
2022-09-18T09:25:02.233Z,13.50
2022-09-18T09:28:06.456Z,13.60
2022-09-18T09:30:58.940Z,13.90
2022-09-18T09:34:04.995Z,14.10
2022-09-18T09:37:11.752Z,14.20
2022-09-18T09:39:44.745Z,14.30
2022-09-18T09:42:12.617Z,14.20
2022-09-18T09:44:50.706Z,14.10
2022-09-18T09:47:43.923Z,14.10
2022-09-18T09:50:19.828Z,14.00
2022-09-18T09:52:49.720Z,14.00
2022-09-18T09:55:49.056Z,14.00
2022-09-18T09:58:47.847Z,13.90
2022-09-18T10:01:40.106Z,13.90
2022-09-18T10:04:34.800Z,13.90
2022-09-18T10:07:13.405Z,14.00
2022-09-18T10:09:56.155Z,14.10
2022-09-18T10:12:31.899Z,14.20
2022-09-18T10:15:32.113Z,14.40
2022-09-18T10:18:04.293Z,14.50
2022-09-18T10:20:33.133Z,14.70
2022-09-18T10:23:10.693Z,14.80
2022-09-18T10:25:56.895Z,14.80
2022-09-18T10:28:26.525Z,15.00
2022-09-18T10:31:05.945Z,15.00
2022-09-18T10:33:40.456Z,14.90
2022-09-18T10:36:38.207Z,14.80
2022-09-18T10:39:30.626Z,14.70
2022-09-18T10:42:05.440Z,14.60
2022-09-18T10:44:42.758Z,14.70
2022-09-18T10:47:21.114Z,14.90
2022-09-18T10:50:02.278Z,15.00
2022-09-18T10:52:37.753Z,15.00
2022-09-18T10:55:16.324Z,15.00
2022-09-18T10:57:48.570Z,15.00
2022-09-18T11:00:23.316Z,15.00
2022-09-18T11:03:21.172Z,15.00
2022-09-18T11:06:01.617Z,14.90
2022-09-18T11:08:34.345Z,14.70
2022-09-18T11:11:22.539Z,14.70
2022-09-18T11:14:01.114Z,14.90
2022-09-18T11:16:47.520Z,14.90
2022-09-18T11:19:27.719Z,15.00
2022-09-18T11:21:56.784Z,14.90
2022-09-18T11:24:47.300Z,14.90
2022-09-18T11:27:23.235Z,15.10
2022-09-18T11:30:14.730Z,15.40
2022-09-18T11:32:46.665Z,15.60
2022-09-18T11:35:17.653Z,15.50
2022-09-18T11:37:50.237Z,15.50
2022-09-18T11:40:41.146Z,15.50
2022-09-18T11:43:22.318Z,15.40
2022-09-18T11:46:05.065Z,15.40
2022-09-18T11:48:55.404Z,15.50
2022-09-18T11:51:28.783Z,15.70
2022-09-18T11:54:08.471Z,15.90
2022-09-18T11:56:51.920Z,16.10
2022-09-18T11:59:37.407Z,16.00
2022-09-18T12:02:44.535Z,16.00
2022-09-18T12:05:18.282Z,15.90
2022-09-18T12:07:47.327Z,15.80
2022-09-18T12:10:23.866Z,15.80
2022-09-18T12:13:14.415Z,15.90
2022-09-18T12:15:54.109Z,15.80
2022-09-18T12:18:28.365Z,15.90
2022-09-18T12:21:05.863Z,16.00
2022-09-18T12:23:35.384Z,16.30
2022-09-18T12:26:15.004Z,16.40
2022-09-18T12:29:05.924Z,16.50
2022-09-18T12:32:12.277Z,16.40
2022-09-18T12:34:57.962Z,16.20
2022-09-18T12:37:50.476Z,16.10
2022-09-18T12:40:39.003Z,15.80
2022-09-18T12:43:26.664Z,15.60
2022-09-18T12:46:21.926Z,15.50
2022-09-18T12:48:54.300Z,15.60
2022-09-18T12:51:24.325Z,15.70
2022-09-18T12:54:10.787Z,15.90
2022-09-18T12:56:59.730Z,16.00
2022-09-18T12:59:45.765Z,16.30
2022-09-18T13:02:37.914Z,16.40
2022-09-18T13:05:09.002Z,16.60
2022-09-18T13:07:48.112Z,16.80
2022-09-18T13:10:26.124Z,16.70
2022-09-18T13:12:59.378Z,16.70
2022-09-18T13:15:54.276Z,16.50
2022-09-18T13:19:06.888Z,16.60
2022-09-18T13:21:41.804Z,16.80
2022-09-18T13:24:18.980Z,17.00
2022-09-18T13:26:47.914Z,17.00
2022-09-18T13:29:51.900Z,17.00
2022-09-18T13:32:42.157Z,16.60
2022-09-18T13:35:30.877Z,16.20
2022-09-18T13:38:19.929Z,16.00
2022-09-18T13:40:48.628Z,16.00
2022-09-18T13:43:24.673Z,16.20
2022-09-18T13:45:52.660Z,16.60
2022-09-18T13:48:22.370Z,16.80
2022-09-18T13:50:54.227Z,16.70
2022-09-18T13:53:36.372Z,16.30
2022-09-18T13:56:04.987Z,15.90
2022-09-18T13:58:36.492Z,15.50
2022-09-18T14:01:09.076Z,14.90
2022-09-18T14:03:38.333Z,14.60
2022-09-18T14:06:36.729Z,14.30
2022-09-18T14:09:54.490Z,14.10
2022-09-18T14:12:23.586Z,14.00
2022-09-18T14:15:24.418Z,14.00
2022-09-18T14:18:15.500Z,14.00
2022-09-18T14:20:49.060Z,14.20
2022-09-18T14:23:34.512Z,14.50
2022-09-18T14:26:02.960Z,14.80
2022-09-18T14:28:34.906Z,15.10
2022-09-18T14:31:14.024Z,15.30
2022-09-18T14:33:41.928Z,15.60
2022-09-18T14:36:14.749Z,15.80
2022-09-18T14:38:41.950Z,15.90
2022-09-18T14:41:21.478Z,16.00
2022-09-18T14:43:52.448Z,16.00
2022-09-18T14:46:21.748Z,16.10
2022-09-18T14:48:48.923Z,16.30
2022-09-18T14:51:22.418Z,16.30
2022-09-18T14:53:54.265Z,16.40
2022-09-18T14:56:29.461Z,16.50
2022-09-18T14:59:00.027Z,16.50
2022-09-18T15:01:30.490Z,16.60
2022-09-18T15:03:59.817Z,16.70
2022-09-18T15:06:39.643Z,16.70
2022-09-18T15:09:10.820Z,16.70
2022-09-18T15:12:01.679Z,16.80
2022-09-18T15:14:32.691Z,16.80
2022-09-18T15:17:02.717Z,16.80
2022-09-18T15:19:30.934Z,16.80
2022-09-18T15:22:00.242Z,16.90
2022-09-18T15:24:27.953Z,16.90
2022-09-18T15:26:57.908Z,17.00
2022-09-18T15:29:27.771Z,16.90
2022-09-18T15:31:55.830Z,16.80
2022-09-18T15:34:29.119Z,16.80
2022-09-18T15:37:01.658Z,16.70
2022-09-18T15:39:36.578Z,16.70
2022-09-18T15:42:51.548Z,16.60
2022-09-18T15:45:21.897Z,16.70
2022-09-18T15:47:49.501Z,16.70
2022-09-18T15:50:16.622Z,16.70
2022-09-18T15:52:53.976Z,16.70
2022-09-18T15:55:28.764Z,16.70
2022-09-18T15:57:57.078Z,16.60
2022-09-18T16:04:17.603Z,16.40
2022-09-18T16:07:47.223Z,16.20
2022-09-18T16:20:43.526Z,16.10
2022-09-18T16:24:06.955Z,16.20
2022-09-18T16:27:10.982Z,16.10
2022-09-18T16:30:34.365Z,16.10
2022-09-18T16:33:23.353Z,16.10
2022-09-18T16:36:47.150Z,15.90
2022-09-18T16:39:35.372Z,15.80
2022-09-18T16:42:34.174Z,15.60
2022-09-18T16:45:19.603Z,15.50
2022-09-18T16:48:00.981Z,15.40
2022-09-18T16:51:11.563Z,15.30
2022-09-18T16:57:05.085Z,15.10
2022-09-18T16:59:33.126Z,15.10
2022-09-18T17:02:04.243Z,15.00
2022-09-18T17:04:32.512Z,14.90
2022-09-18T17:06:59.450Z,14.80
2022-09-18T17:09:26.907Z,14.80
2022-09-18T17:11:54.433Z,14.70
2022-09-18T17:14:25.207Z,14.70
2022-09-18T17:16:52.547Z,14.70
2022-09-18T17:19:21.335Z,14.60
2022-09-18T17:21:48.921Z,14.60
2022-09-18T17:24:17.432Z,14.50
2022-09-18T17:26:45.162Z,14.40
2022-09-18T17:29:12.335Z,14.40
2022-09-18T17:31:44.999Z,14.30
2022-09-18T17:34:12.634Z,14.30
2022-09-18T17:36:40.256Z,14.30
2022-09-18T17:39:07.692Z,14.30
2022-09-18T17:41:35.054Z,14.20
2022-09-18T17:44:02.611Z,14.20
2022-09-18T17:46:29.865Z,14.20
2022-09-18T17:48:59.660Z,14.20
2022-09-18T17:51:29.130Z,14.10
2022-09-18T17:54:03.140Z,14.10
2022-09-18T17:56:32.801Z,14.00
2022-09-18T17:59:06.106Z,14.00
2022-09-18T18:01:36.528Z,13.90
2022-09-18T18:04:05.077Z,13.90
2022-09-18T18:06:41.162Z,13.90
2022-09-18T18:12:48.180Z,13.70
2022-09-18T18:15:33.743Z,13.50
2022-09-18T18:21:42.976Z,13.30
2022-09-18T18:27:47.704Z,13.10
2022-09-18T18:30:16.347Z,12.90
2022-09-18T18:32:43.615Z,12.90
2022-09-18T18:35:10.896Z,12.80
2022-09-18T18:37:38.069Z,12.70
2022-09-18T18:40:05.685Z,12.70
2022-09-18T18:42:32.905Z,12.60
2022-09-18T18:45:01.214Z,12.60
2022-09-18T18:47:29.638Z,12.60
2022-09-18T18:49:59.472Z,12.60
2022-09-18T18:52:27.121Z,12.70
2022-09-18T18:54:54.252Z,12.70
2022-09-18T18:57:22.759Z,12.60
2022-09-18T18:59:50.926Z,12.60
2022-09-18T19:02:17.838Z,12.50
2022-09-18T19:04:45.697Z,12.40
2022-09-18T19:07:13.045Z,12.40
2022-09-18T19:09:44.250Z,12.30
2022-09-18T19:12:14.122Z,12.30
2022-09-18T19:14:41.603Z,12.20
2022-09-18T19:17:10.193Z,12.20
2022-09-18T19:19:37.063Z,12.10
2022-09-18T19:22:04.274Z,12.10
2022-09-18T19:24:31.376Z,12.00
2022-09-18T19:26:58.942Z,12.00
2022-09-18T19:29:29.345Z,12.00
2022-09-18T19:31:57.592Z,12.00
2022-09-18T19:34:24.764Z,11.90
2022-09-18T19:36:52.152Z,11.80
2022-09-18T19:39:21.310Z,11.80
2022-09-18T19:41:55.871Z,11.70
2022-09-18T19:44:43.406Z,11.70
2022-09-18T19:47:29.630Z,11.60
2022-09-18T19:49:58.343Z,11.50
2022-09-18T19:52:30.311Z,11.40
2022-09-18T19:54:59.036Z,11.40
2022-09-18T19:57:27.828Z,11.30
2022-09-18T19:59:57.133Z,11.20
2022-09-18T20:02:25.390Z,11.10
2022-09-18T20:04:52.444Z,11.10
2022-09-18T20:07:19.648Z,11.10
2022-09-18T20:09:46.726Z,11.00
2022-09-18T20:12:14.970Z,10.90
2022-09-18T20:14:42.043Z,10.70
2022-09-18T20:17:09.955Z,10.70
2022-09-18T20:19:37.300Z,10.60
2022-09-18T20:22:05.069Z,10.50
2022-09-18T20:24:32.730Z,10.40
2022-09-18T20:27:00.766Z,10.30
2022-09-18T20:29:29.065Z,10.30
2022-09-18T20:31:56.497Z,10.30
2022-09-18T20:34:25.069Z,10.20
2022-09-18T20:36:53.671Z,10.10
2022-09-18T20:39:21.623Z,10.10
2022-09-18T20:41:48.999Z,10.10
2022-09-18T20:44:15.991Z,10.10
2022-09-18T20:46:44.537Z,10.10
2022-09-18T20:49:13.298Z,10.00
2022-09-18T20:51:40.204Z,10.00
2022-09-18T20:54:08.127Z,9.90
2022-09-18T20:56:41.945Z,9.80
2022-09-18T20:59:10.216Z,9.70
2022-09-18T21:01:42.172Z,9.70
2022-09-18T21:04:17.032Z,9.60
2022-09-18T21:06:51.625Z,9.60
2022-09-18T21:09:18.504Z,9.50
2022-09-18T21:11:45.394Z,9.60
2022-09-18T21:14:18.200Z,9.50
2022-09-18T21:16:45.180Z,9.40
2022-09-18T21:19:14.431Z,9.40
2022-09-18T21:21:41.555Z,9.40
2022-09-18T21:24:09.187Z,9.40
2022-09-18T21:26:47.119Z,9.30
2022-09-18T21:29:25.194Z,9.20
2022-09-18T21:31:54.935Z,9.10
2022-09-18T21:34:27.131Z,9.10
2022-09-18T21:36:57.808Z,9.10
2022-09-18T21:39:26.186Z,9.00
2022-09-18T21:41:53.392Z,9.00
2022-09-18T21:44:26.906Z,9.10
2022-09-18T21:46:55.319Z,9.00
2022-09-18T21:49:23.039Z,9.00
2022-09-18T21:51:53.394Z,9.00
2022-09-18T21:54:21.922Z,9.00
2022-09-18T21:56:52.036Z,8.90
2022-09-18T21:59:20.404Z,9.00
2022-09-18T22:01:54.268Z,8.90
2022-09-18T22:04:27.364Z,8.90
2022-09-18T22:06:57.250Z,8.90
2022-09-18T22:09:32.879Z,8.90
2022-09-18T22:12:03.411Z,8.90
2022-09-18T22:14:32.732Z,8.90
2022-09-18T22:17:05.347Z,8.90
2022-09-18T22:19:33.394Z,8.90
2022-09-18T22:22:00.618Z,8.80
2022-09-18T22:24:29.001Z,8.80
2022-09-18T22:27:02.532Z,8.80
2022-09-18T22:29:32.396Z,8.80
2022-09-18T22:31:59.631Z,8.80
2022-09-18T22:34:28.742Z,8.80
2022-09-18T22:36:57.156Z,8.80
2022-09-18T22:39:27.280Z,8.80
2022-09-18T22:41:54.885Z,8.80
2022-09-18T22:44:22.634Z,8.80
2022-09-18T22:46:52.442Z,8.70
2022-09-18T22:49:21.257Z,8.70
2022-09-18T22:51:50.004Z,8.60
2022-09-18T22:54:17.303Z,8.60
2022-09-18T22:56:46.981Z,8.60
2022-09-18T22:59:16.606Z,8.50
2022-09-18T23:01:48.966Z,8.40
2022-09-18T23:04:18.742Z,8.40
2022-09-18T23:06:47.811Z,8.40
2022-09-18T23:09:19.018Z,8.30
2022-09-18T23:11:47.930Z,8.20
2022-09-18T23:14:20.434Z,8.10
2022-09-18T23:16:49.152Z,8.00
2022-09-18T23:19:33.941Z,8.00
2022-09-18T23:22:01.122Z,8.00
2022-09-18T23:24:28.897Z,8.00
2022-09-18T23:26:58.138Z,7.90
2022-09-18T23:29:27.405Z,7.90
2022-09-18T23:31:58.209Z,7.80
2022-09-18T23:34:29.671Z,7.70
2022-09-18T23:36:58.349Z,7.70
2022-09-18T23:39:28.923Z,7.80
2022-09-18T23:41:57.144Z,7.70
2022-09-18T23:44:24.677Z,7.70
2022-09-18T23:46:52.059Z,7.60
2022-09-18T23:49:23.374Z,7.60
2022-09-18T23:51:52.592Z,7.60
2022-09-18T23:54:27.282Z,7.70
2022-09-18T23:56:57.000Z,7.80
2022-09-18T23:59:25.264Z,7.90
